Inchelium, Washington
Current Conditions -  °F | °C
As of 11:18 PM on Saturday 22 Nov 2014 (Local Time) from KDEW Reporting Station
Scattered Clouds Scattered Clouds  
Wind Chill: -4°   Ceiling: Unl
Heat Index: -4°   Visibility: 9mi
Dew Point: -5°   Wind: 3mph
Humidity: 96%   Direction: 50°NE
Pressure: 29.98"   Gusts: NA
Location:  48.34°N, 118.25°W
Report Text: KDEW 230718Z AUTO 05003KT 9SM SCT003 M04/M05 A2998 RMK AO2 T10441050
Loading
Personal Weather Stations






























Interactive Weather Map New forecast layout! Learn more

10-Day Weather Forecast

Advertisements
Track Severe Weather on mobile